EHVK

Volkel Air Base

Airport
ICAO code
EHVK
IATA Code
UDE
Summary
ICAO Region
EUR
ICAO Territory
Location

Uden, Noord-Brabant

Serving
Volkel
Elevation
72 ft
Coordinates
51° 39' 23" N , 5° 42' 31" E
KCC
Cfb
Metar
Observation
EHVK 081525Z AUTO 36008KT 330V090 9999 FEW053 25/10 Q1025 BLU
Station
Volkel
Date/Time
2022-08-08 15:25:00
Wind direction
360°
Wind speed
08 kts
Lowest cloud amount
few clouds
Temperature
25°C
Dew point
10°C
Humidity
38%
QNH
1025 hPa
Weather condition
n/a

Volkel Air Base is a military airbase used by the Royal Netherlands Air Force (RNLAF), and is located near the town of Uden, Noord-Brabant, in the Netherlands. It is home to two F-16 Fighting Falcon squadrons, 312 and 313. Besides military use, a traumahelicopter is based here.

Climatology

Temperate Marine climate/Oceanic climate (Köppen climate classification Cfb). Moderately cool summer and comparatively warm winter with a temperature range of only 14°C. Prevailing south-westerly winds from the Atlantic Ocean.

Runways

Designator Length Width Surface Rops
06L/24R 3024 45 ASP No/No
06R/24L 3027 23 ASP No/No

Airport map

Aerial View

SKYbrary Partners:

Safety knowledge contributed by: